Pagina principale
METAR-TAF:

METAR-TAF

Aeroporti :

Aeroporto di Weeze

Weeze, Germania

latitudine: 51-36-09N, longitudine: 006-08-32E, altezza: 32 m

Osservazione

Il bollettino è stato emesso 12 minuti fa, alle 12:50 UTC
Vento 4 kt da direzioni variabili
Temperature 26°C
Umidità 42%
Pressione 1019 hPa
Visibilità 10 km o più
nessuna nube inferiore a 1500 m e nessun cumulonembo

METAR: EDLV 171250Z VRB04KT CAVOK 26/12 Q1019

Ora: 15:02 (13:02 UTC)

Previsione

Il bollettino è stato emesso 2 ore e 2 minuti fa, alle 11:00 UTC
Previsione valida dal 17 alle 12 UTC al 18 alle 12 UTC
Vento 3 kt da direzioni variabili
Visibilità 10 km o più
nessuna nube inferiore a 1500 m e nessun cumulonembo
Temporaneamente
dal 17 alle 12 UTC al 17 alle 17 UTC
Vento 6 kt da sud/sud-est

TAF: EDLV 171100Z 1712/1812 VRB03KT CAVOK TEMPO 1712/1717 16006KT

Osservazioni e previsioni meteorologiche di più di 4000 aeroporti (messaggi METAR e TAF).

Le stazioni disponibili sono rappresentate dai dischi gialli e rossi sulla carta.

Puntare il mouse per vedere il nome della stazione.

Clicca sopra per visualizzare le osservazioni e previsioni meteorologiche.

Per cambiare la mappa : fare clic sui pulsanti verdi con una croce nera per ingrandire, il pulsante verde con un trattino per diminuire, o sulla freccia verde per le mappe adiacenti.


METAR-TAF: